Time;durP1;ratioP1;P1;durP2;ratioP2;P2;SDS_P1;SDS_P2;PMS_P1;PMS_P2;Temp;Humidity;BMP_temperature;BMP_pressure;BME280_temperature;BME280_humidity;BME280_pressure;Samples;Min_cycle;Max_cycle;Signal;HPM_P1;HPM_P2
2022/03/01 00:01:12;;;;;;;19.30;5.13;;;;;;;-6.61;85.87;101403.97;5046207;28;20065;-64
2022/03/01 00:03:38;;;;;;;20.25;5.47;;;;;;;-6.72;86.43;101384.69;5029902;28;20083;-65
2022/03/01 00:06:04;;;;;;;16.25;5.72;;;;;;;-6.72;88.45;101389.09;5029534;28;20416;-62
2022/03/01 00:08:30;;;;;;;22.80;5.50;;;;;;;-6.88;89.17;101382.91;5045927;28;20093;-65
2022/03/01 00:10:56;;;;;;;24.98;7.88;;;;;;;-6.87;89.54;101385.56;5046303;28;20087;-64
2022/03/01 00:13:21;;;;;;;23.80;8.35;;;;;;;-6.89;91.08;101382.03;5046225;28;20045;-64
2022/03/01 00:15:47;;;;;;;27.20;8.25;;;;;;;-6.95;91.53;101381.16;5063130;28;20047;-65
2022/03/01 00:18:13;;;;;;;22.05;6.95;;;;;;;-7.05;91.97;101375.03;5029496;28;20053;-64
2022/03/01 00:20:39;;;;;;;25.15;6.88;;;;;;;-7.09;91.96;101379.41;5030115;28;20128;-64
2022/03/01 00:23:06;;;;;;;29.85;7.68;;;;;;;-7.13;92.31;101376.75;5029036;28;20045;-64
2022/03/01 00:25:32;;;;;;;37.00;10.23;;;;;;;-7.07;93.53;101380.28;5030824;28;20053;-65
2022/03/01 00:27:57;;;;;;;29.23;8.35;;;;;;;-7.15;93.81;101382.03;5045991;28;20132;-64
2022/03/01 00:30:23;;;;;;;21.13;5.68;;;;;;;-7.20;93.27;101375.88;5046340;28;20429;-64
2022/03/01 00:32:50;;;;;;;18.05;6.47;;;;;;;-7.18;93.42;101381.13;5045446;28;20428;-64
2022/03/01 00:35:17;;;;;;;30.42;6.10;;;;;;;-7.22;92.00;101382.88;5028829;28;20053;-64
2022/03/01 00:37:42;;;;;;;26.80;7.05;;;;;;;-7.21;91.16;101381.13;5045596;28;20053;-64
2022/03/01 00:40:09;;;;;;;19.42;6.00;;;;;;;-7.11;90.85;101370.63;5028992;28;20037;-65
2022/03/01 00:42:35;;;;;;;21.92;6.47;;;;;;;-7.23;90.53;101370.63;5029029;28;20077;-65
2022/03/01 00:45:00;;;;;;;14.52;5.20;;;;;;;-7.25;90.20;101371.50;5012788;28;20799;-63
2022/03/01 00:47:26;;;;;;;25.85;5.65;;;;;;;-7.34;89.48;101367.97;5046627;28;20515;-65
2022/03/01 00:49:52;;;;;;;21.35;5.65;;;;;;;-7.37;89.29;101369.72;4997309;28;20037;-65
2022/03/01 00:52:18;;;;;;;21.50;6.65;;;;;;;-7.42;89.10;101368.81;5029817;28;20052;-64
2022/03/01 00:54:44;;;;;;;20.48;5.72;;;;;;;-7.42;89.16;101368.81;5046589;28;20483;-64
2022/03/01 00:57:10;;;;;;;19.33;5.00;;;;;;;-7.50;89.55;101349.53;5046030;28;20131;-65
2022/03/01 00:59:36;;;;;;;24.75;6.22;;;;;;;-7.41;89.05;101366.22;5045357;28;20049;-64
2022/03/01 01:02:02;;;;;;;18.63;6.22;;;;;;;-7.53;89.09;101339.94;5045435;28;20049;-64
2022/03/01 01:04:27;;;;;;;19.67;5.35;;;;;;;-7.58;89.26;101331.13;5009632;28;20049;-65
2022/03/01 01:06:53;;;;;;;15.70;4.78;;;;;;;-7.45;88.82;101355.69;5008914;28;20517;-65
2022/03/01 01:09:19;;;;;;;20.90;5.88;;;;;;;-7.37;88.51;101356.59;5025659;28;20050;-64
2022/03/01 01:11:45;;;;;;;21.30;5.88;;;;;;;-7.41;88.04;101349.56;5025540;28;20045;-64
2022/03/01 01:14:11;;;;;;;19.20;5.97;;;;;;;-7.40;88.07;101351.31;5010704;28;20050;-64
2022/03/01 01:16:37;;;;;;;15.82;4.88;;;;;;;-7.49;88.08;101340.78;5009284;28;20072;-65
2022/03/01 01:19:03;;;;;;;30.05;6.00;;;;;;;-7.43;87.98;101353.94;5008812;28;20050;-65
2022/03/01 01:22:39;;;;;;;19.17;5.68;;;;;;;-7.61;88.76;101329.38;4976446;28;20038;-65
2022/03/01 01:24:14;;;;;;;25.00;6.90;;;;;;;-7.59;89.97;101356.53;5010285;28;20058;-65
2022/03/01 01:26:40;;;;;;;18.13;6.20;;;;;;;-7.63;90.69;101354.75;5025413;28;20060;-64
2022/03/01 01:29:06;;;;;;;27.85;8.30;;;;;;;-7.58;91.45;101358.28;4992685;28;20053;-64
2022/03/01 01:31:31;;;;;;;30.70;7.03;;;;;;;-7.62;91.97;101350.38;5009341;28;20444;-64
2022/03/01 01:33:57;;;;;;;27.77;7.28;;;;;;;-7.69;91.55;101361.75;5013175;28;20543;-64
2022/03/01 01:36:25;;;;;;;27.23;9.90;;;;;;;-7.76;92.45;101356.47;4981588;28;20136;-65
2022/03/01 01:38:53;;;;;;;39.80;9.68;;;;;;;-7.67;92.85;101352.13;5015128;28;20256;-64
2022/03/01 01:41:18;;;;;;;20.02;6.38;;;;;;;-7.69;92.79;101354.72;5014913;28;20041;-65
2022/03/01 01:43:45;;;;;;;26.65;8.02;;;;;;;-7.68;92.62;101359.09;5013251;28;20482;-65
2022/03/01 01:46:11;;;;;;;24.58;5.90;;;;;;;-7.74;92.50;101356.47;5030350;28;20069;-65
2022/03/01 01:48:36;;;;;;;15.52;5.47;;;;;;;-7.72;92.10;101354.72;4997541;28;20100;-64
2022/03/01 01:51:02;;;;;;;15.93;5.32;;;;;;;-7.70;91.83;101363.50;5030453;28;20405;-65
2022/03/01 01:53:28;;;;;;;25.65;6.40;;;;;;;-7.72;91.78;101362.59;5015098;28;20052;-64
2022/03/01 01:55:53;;;;;;;23.73;6.88;;;;;;;-7.71;91.88;101367.00;4996281;28;20473;-64
2022/03/01 01:58:19;;;;;;;18.83;5.90;;;;;;;-7.76;92.53;101358.22;5014231;28;20049;-65
2022/03/01 02:00:45;;;;;;;15.88;6.32;;;;;;;-7.84;93.04;101359.94;4996129;28;20068;-65
2022/03/01 02:03:11;;;;;;;22.02;6.68;;;;;;;-7.81;94.02;101371.31;5028803;28;20043;-64
2022/03/01 02:05:37;;;;;;;37.15;10.98;;;;;;;-7.86;96.08;101324.91;5028352;28;20119;-64
2022/03/01 02:08:03;;;;;;;36.65;10.15;;;;;;;-7.54;97.55;101360.03;5011944;28;20207;-64
2022/03/01 02:10:28;;;;;;;32.92;10.10;;;;;;;-7.63;97.19;101354.75;5045483;28;20050;-65
2022/03/01 02:12:59;;;;;;;27.85;9.88;;;;;;;-7.62;96.77;101356.50;5013212;28;20033;-64
2022/03/01 02:15:25;;;;;;;24.08;8.45;;;;;;;-7.65;96.18;101366.13;5013180;28;20056;-63
2022/03/01 02:17:51;;;;;;;34.10;7.75;;;;;;;-7.72;96.28;101365.22;5028682;28;20046;-63
2022/03/01 02:20:18;;;;;;;27.48;8.40;;;;;;;-7.87;96.47;101368.66;5013345;28;20077;-64
2022/03/01 02:22:45;;;;;;;30.38;7.65;;;;;;;-7.90;96.55;101365.16;5036067;28;20056;-63
2022/03/01 02:25:11;;;;;;;30.08;8.57;;;;;;;-8.11;96.99;101340.59;5032954;28;20053;-63
2022/03/01 02:27:38;;;;;;;26.48;8.43;;;;;;;-8.03;96.98;101365.09;5014956;28;20460;-65
2022/03/01 02:30:06;;;;;;;28.88;9.40;;;;;;;-8.20;96.89;101345.75;5031352;28;20099;-64
2022/03/01 02:32:33;;;;;;;29.35;9.52;;;;;;;-8.30;96.73;101344.88;5031357;28;20053;-64
2022/03/01 02:34:59;;;;;;;39.15;10.07;;;;;;;-8.12;96.81;101375.53;5031418;28;20505;-64
2022/03/01 02:37:25;;;;;;;34.65;9.40;;;;;;;-8.30;96.84;101343.94;5047702;28;20033;-65
2022/03/01 02:39:53;;;;;;;38.95;9.30;;;;;;;-8.15;97.20;101372.91;5047571;28;20059;-64
2022/03/01 02:42:20;;;;;;;29.48;10.10;;;;;;;-8.19;97.21;101373.78;5047880;28;20073;-64
2022/03/01 02:44:48;;;;;;;39.60;10.02;;;;;;;-8.23;97.50;101371.97;5046784;28;20046;-64
2022/03/01 02:47:15;;;;;;;25.27;9.23;;;;;;;-8.29;97.42;101372.84;5031276;28;20560;-64
2022/03/01 02:49:41;;;;;;;32.25;10.10;;;;;;;-8.29;97.78;101366.72;5030725;28;20053;-65
2022/03/01 02:52:07;;;;;;;39.22;10.48;;;;;;;-8.28;97.84;101369.34;5032278;28;20357;-65
2022/03/01 02:54:33;;;;;;;32.35;10.75;;;;;;;-8.31;98.27;101377.19;4998126;28;20049;-64
2022/03/01 02:57:01;;;;;;;22.70;8.60;;;;;;;-8.39;98.20;101364.94;5047478;28;20095;-64
2022/03/01 02:59:29;;;;;;;29.95;9.55;;;;;;;-8.40;98.64;101368.44;4997132;28;20501;-65
2022/03/01 03:01:56;;;;;;;28.48;10.95;;;;;;;-8.46;99.27;101357.88;5032144;28;20103;-64
2022/03/01 03:04:22;;;;;;;48.70;12.35;;;;;;;-8.45;98.76;101364.88;5047515;28;20051;-64
2022/03/01 03:06:48;;;;;;;23.40;6.20;;;;;;;-8.52;98.15;101362.25;5032469;28;20041;-64
2022/03/01 03:09:14;;;;;;;20.35;7.40;;;;;;;-8.71;97.37;101338.50;5047435;28;20139;-65
2022/03/01 03:11:40;;;;;;;20.25;7.65;;;;;;;-8.54;97.54;101363.97;5030700;28;20489;-64
2022/03/01 03:14:05;;;;;;;25.95;8.30;;;;;;;-8.56;97.66;101356.94;5047362;28;20061;-65
2022/03/01 03:16:31;;;;;;;34.97;9.90;;;;;;;-8.66;98.05;101344.66;4997636;28;20052;-64
2022/03/01 03:18:57;;;;;;;29.67;8.18;;;;;;;-8.66;98.38;101356.03;4997369;28;20493;-64
2022/03/01 03:21:23;;;;;;;24.55;8.52;;;;;;;-8.69;98.71;101356.00;5031725;28;20422;-64
2022/03/01 03:23:49;;;;;;;26.38;9.55;;;;;;;-8.82;98.60;101334.03;5030137;28;20049;-65
2022/03/01 03:26:15;;;;;;;30.90;10.23;;;;;;;-8.69;98.32;101355.13;5014152;28;20045;-65
2022/03/01 03:28:41;;;;;;;31.17;10.07;;;;;;;-8.69;97.84;101356.00;5013560;28;20049;-64
2022/03/01 03:31:07;;;;;;;47.40;10.43;;;;;;;-8.68;98.25;101352.50;5046924;28;20095;-64
2022/03/01 03:33:32;;;;;;;31.75;8.48;;;;;;;-8.67;98.36;101353.38;5014678;28;20056;-65
2022/03/01 03:35:58;;;;;;;20.88;7.65;;;;;;;-8.66;98.01;101356.03;5030947;28;20135;-65
2022/03/01 03:38:25;;;;;;;26.33;9.27;;;;;;;-8.69;97.37;101348.13;5031896;28;20368;-65
2022/03/01 03:40:52;;;;;;;32.65;8.95;;;;;;;-8.83;97.45;101326.19;5032538;28;20041;-65
2022/03/01 03:43:19;;;;;;;37.78;12.57;;;;;;;-8.75;97.98;101343.69;4998433;28;20540;-65
2022/03/01 03:45:46;;;;;;;37.15;12.35;;;;;;;-8.91;98.00;101314.78;5031586;28;20049;-65
2022/03/01 03:48:12;;;;;;;42.97;13.35;;;;;;;-8.88;98.28;101333.13;5031715;28;20047;-65
2022/03/01 03:50:38;;;;;;;34.60;10.15;;;;;;;-8.96;98.28;101321.69;5033213;28;20493;-64
2022/03/01 03:53:04;;;;;;;31.88;9.95;;;;;;;-8.92;98.82;101326.09;5030669;28;20075;-65
2022/03/01 03:55:30;;;;;;;31.00;11.30;;;;;;;-8.84;98.58;101348.91;5048300;28;20110;-65
2022/03/01 03:57:56;;;;;;;27.08;9.35;;;;;;;-8.83;98.63;101345.41;5030574;28;20045;-65
2022/03/01 04:00:22;;;;;;;24.23;8.18;;;;;;;-8.84;98.23;101343.66;5065527;28;20050;-65
2022/03/01 04:02:51;;;;;;;19.38;5.82;;;;;;;-8.85;97.40;101348.84;5029652;28;20042;-65
2022/03/01 04:05:16;;;;;;;20.85;7.40;;;;;;;-8.85;97.24;101343.63;5017479;28;20065;-65
2022/03/01 04:07:44;;;;;;;26.05;7.60;;;;;;;-8.87;97.21;101350.59;5026912;28;20038;-65
2022/03/01 04:10:10;;;;;;;26.00;8.40;;;;;;;-8.84;97.39;101345.41;4996229;28;20065;-65
2022/03/01 04:12:38;;;;;;;28.75;7.68;;;;;;;-8.88;97.29;101344.50;5032096;28;20041;-65
2022/03/01 04:15:05;;;;;;;31.42;7.53;;;;;;;-8.97;97.67;101328.69;5031202;28;20064;-65
2022/03/01 04:17:31;;;;;;;25.17;8.25;;;;;;;-8.81;97.45;101350.63;5038740;28;20084;-67
2022/03/01 04:19:57;;;;;;;30.73;8.00;;;;;;;-8.91;96.92;101338.34;4975019;28;20038;-65
2022/03/01 04:22:23;;;;;;;37.92;11.43;;;;;;;-8.88;97.07;101346.25;5000084;28;20050;-65
2022/03/01 04:24:49;;;;;;;28.27;9.27;;;;;;;-8.95;97.46;101337.44;4995081;28;20025;-68
2022/03/01 04:27:17;;;;;;;31.60;8.82;;;;;;;-8.85;98.12;101344.50;5022716;28;20408;-66
2022/03/01 04:29:43;;;;;;;32.10;9.20;;;;;;;-8.80;99.07;101348.03;5043118;28;20052;-70
2022/03/01 04:32:09;;;;;;;32.00;11.30;;;;;;;-8.66;99.93;101356.03;5040679;28;20082;-69
2022/03/01 04:34:36;;;;;;;34.20;13.25;;;;;;;-8.51;100.00;101350.88;4976648;28;20072;-65
2022/03/01 04:37:02;;;;;;;38.75;10.90;;;;;;;-8.46;100.00;101357.88;5029360;28;20121;-66
2022/03/01 04:39:29;;;;;;;34.13;11.45;;;;;;;-8.35;99.65;101361.41;4992877;28;20053;-65
2022/03/01 04:41:56;;;;;;;38.45;11.27;;;;;;;-8.54;98.98;101329.88;5010412;28;20050;-64
2022/03/01 04:44:22;;;;;;;35.22;13.02;;;;;;;-8.32;98.89;101350.97;5026038;28;20048;-65
2022/03/01 04:46:48;;;;;;;43.67;14.07;;;;;;;-8.25;97.96;101358.88;5009246;28;20449;-66
2022/03/01 04:49:15;;;;;;;50.15;14.07;;;;;;;-8.23;96.42;101356.22;4992795;28;20042;-67
2022/03/01 04:51:41;;;;;;;44.47;13.30;;;;;;;-8.17;95.74;101356.28;5009038;28;20049;-64
2022/03/01 04:54:07;;;;;;;42.55;14.02;;;;;;;-8.10;95.38;101363.31;4992974;28;20057;-65
2022/03/01 04:56:33;;;;;;;48.97;15.02;;;;;;;-8.08;95.10;101361.59;4992572;28;20148;-67
2022/03/01 04:58:59;;;;;;;46.65;14.15;;;;;;;-8.12;94.34;101346.69;5009159;28;20492;-65
2022/03/01 05:01:25;;;;;;;45.40;14.57;;;;;;;-7.97;94.48;101368.63;4993779;28;20046;-65
2022/03/01 05:03:51;;;;;;;42.25;12.45;;;;;;;-7.96;94.02;101367.75;5028996;28;20034;-67
2022/03/01 05:06:17;;;;;;;37.22;14.55;;;;;;;-7.98;94.30;101367.75;5003695;28;20100;-65
2022/03/01 05:08:43;;;;;;;57.92;17.70;;;;;;;-7.87;94.91;101365.16;5025331;28;20525;-66
2022/03/01 05:11:09;;;;;;;47.83;15.40;;;;;;;-7.86;94.90;101359.03;5025945;28;20116;-67
2022/03/01 05:13:35;;;;;;;40.60;13.73;;;;;;;-7.76;94.92;101348.59;5011515;28;20041;-65
2022/03/01 05:16:01;;;;;;;41.80;13.73;;;;;;;-7.64;94.85;101358.28;4982480;28;20128;-66
2022/03/01 05:18:27;;;;;;;52.78;17.25;;;;;;;-7.67;94.09;101337.25;4991256;28;20149;-66
2022/03/01 05:20:53;;;;;;;49.28;16.33;;;;;;;-7.40;92.72;101356.56;4995657;28;20048;-66
2022/03/01 05:23:19;;;;;;;47.70;15.68;;;;;;;-7.29;92.07;101360.97;5025688;28;20045;-63
2022/03/01 05:25:45;;;;;;;49.22;15.15;;;;;;;-7.14;91.99;101354.00;5039440;28;20421;-66
2022/03/01 05:28:11;;;;;;;48.53;16.83;;;;;;;-7.04;91.09;101355.75;5024207;28;20192;-68
2022/03/01 05:30:37;;;;;;;48.20;14.80;;;;;;;-6.75;91.40;101355.75;5039011;28;20045;-67
2022/03/01 05:33:03;;;;;;;51.13;15.15;;;;;;;-4.21;84.71;101356.97;4995706;28;20037;-70
2022/03/01 05:35:30;;;;;;;54.00;16.10;;;;;;;-2.94;74.18;101341.22;5027465;28;20083;-70
2022/03/01 05:37:57;;;;;;;56.92;13.95;;;;;;;-2.03;68.07;101359.06;4959192;28;20053;-69
2022/03/01 05:40:26;;;;;;;38.33;12.43;;;;;;;-1.43;64.52;101340.13;5034509;28;20068;-67
2022/03/01 05:42:53;;;;;;;47.10;11.95;;;;;;;-0.80;62.93;101347.53;5017264;28;20034;-67
2022/03/01 05:45:20;;;;;;;33.20;13.35;;;;;;;-0.20;61.13;101353.09;5010966;28;20049;-68
2022/03/01 05:47:46;;;;;;;40.45;16.08;;;;;;;0.85;57.22;101338.50;4980236;28;20041;-68
2022/03/01 05:50:14;;;;;;;45.22;14.88;;;;;;;1.54;53.21;101342.47;5012589;28;20464;-68
2022/03/01 05:52:40;;;;;;;54.03;18.45;;;;;;;2.16;50.68;101341.19;5039094;28;20041;-71
2022/03/01 05:55:08;;;;;;;45.22;16.65;;;;;;;2.85;48.77;101347.44;5018515;28;20109;-70
2022/03/01 05:57:35;;;;;;;46.55;16.27;;;;;;;3.00;48.14;101355.75;5024291;28;20116;-71
2022/03/01 06:00:01;;;;;;;45.03;15.32;;;;;;;3.73;46.75;101358.09;5044243;28;20546;-66
2022/03/01 06:02:28;;;;;;;37.45;14.30;;;;;;;4.05;44.94;101359.34;4987866;28;20057;-71
2022/03/01 06:04:54;;;;;;;36.38;14.70;;;;;;;4.42;44.21;101355.00;5006041;28;20046;-66
2022/03/01 06:07:20;;;;;;;39.97;13.93;;;;;;;4.95;43.10;101362.38;4996265;28;20148;-65
2022/03/01 06:09:46;;;;;;;34.50;14.35;;;;;;;5.17;42.45;101361.34;4972843;28;20049;-68
2022/03/01 06:12:12;;;;;;;33.55;13.10;;;;;;;5.56;41.31;101358.50;5010217;28;20103;-68
2022/03/01 06:14:38;;;;;;;39.92;12.23;;;;;;;5.52;41.40;101355.09;5051036;28;20128;-67
2022/03/01 06:17:04;;;;;;;53.20;14.05;;;;;;;5.07;42.58;101361.75;5000491;28;20568;-66
2022/03/01 06:19:30;;;;;;;39.72;15.02;;;;;;;6.26;40.33;101354.88;5026465;28;20044;-66
2022/03/01 06:21:56;;;;;;;36.85;12.43;;;;;;;5.90;40.81;101356.78;5001194;28;20045;-69
2022/03/01 06:24:23;;;;;;;52.28;15.00;;;;;;;6.93;39.26;101350.31;4985217;28;20042;-67
2022/03/01 06:26:49;;;;;;;43.15;14.40;;;;;;;7.60;37.40;101350.06;5031463;28;20118;-65
2022/03/01 06:29:15;;;;;;;40.40;13.85;;;;;;;8.49;36.19;101344.72;5030497;28;20050;-66
2022/03/01 06:31:41;;;;;;;45.75;14.30;;;;;;;8.38;35.89;101343.56;4999055;28;20553;-66
2022/03/01 06:34:07;;;;;;;42.55;15.73;;;;;;;8.08;35.72;101321.16;4998578;28;20128;-66
2022/03/01 06:36:33;;;;;;;41.38;14.43;;;;;;;8.99;34.17;101337.91;5021813;28;20524;-73
2022/03/01 06:38:59;;;;;;;35.55;14.43;;;;;;;9.00;34.08;101335.13;4982623;28;20048;-68
2022/03/01 06:41:25;;;;;;;50.17;17.13;;;;;;;9.16;34.10;101332.28;5049285;28;20478;-68
2022/03/01 06:43:51;;;;;;;43.92;17.00;;;;;;;9.23;33.58;101344.41;5018812;28;20034;-67
2022/03/01 06:46:17;;;;;;;38.58;17.50;;;;;;;9.92;32.57;101328.09;5011136;28;20521;-68
2022/03/01 06:48:42;;;;;;;52.13;18.05;;;;;;;8.96;33.85;101327.31;5007424;28;20560;-64
2022/03/01 06:51:08;;;;;;;51.60;19.20;;;;;;;9.75;32.93;101343.63;4980914;28;20141;-70
2022/03/01 06:53:38;;;;;;;47.08;19.08;;;;;;;10.22;31.81;101353.00;5007687;28;20500;-70
2022/03/01 06:56:04;;;;;;;49.15;18.90;;;;;;;10.28;31.92;101358.00;4966592;28;20049;-68
2022/03/01 06:58:30;;;;;;;44.13;19.55;;;;;;;10.46;31.11;101350.44;5005446;28;20045;-69
2022/03/01 07:00:57;;;;;;;51.22;19.67;;;;;;;10.63;31.18;101354.63;4993390;28;20037;-68
2022/03/01 07:03:23;;;;;;;48.08;20.20;;;;;;;10.99;30.13;101358.38;5011875;28;20062;-70
2022/03/01 07:05:49;;;;;;;50.55;19.27;;;;;;;10.43;31.35;101349.78;4987380;28;20042;-70
2022/03/01 07:08:15;;;;;;;57.28;19.65;;;;;;;11.97;28.51;101357.31;5012090;28;20514;-71
2022/03/01 07:10:41;;;;;;;70.45;19.17;;;;;;;13.03;28.17;101351.63;4980760;28;20140;-68
2022/03/01 07:13:07;;;;;;;44.42;18.13;;;;;;;13.57;27.14;101350.81;5009580;28;20050;-70
2022/03/01 07:15:37;;;;;;;41.05;15.13;;;;;;;13.13;27.28;101352.63;4993370;28;20038;-67
2022/03/01 07:18:03;;;;;;;53.97;18.80;;;;;;;12.61;27.99;101351.38;5008746;28;20040;-68
2022/03/01 07:20:29;;;;;;;58.72;18.05;;;;;;;12.35;27.39;101349.88;5010278;28;20069;-67
2022/03/01 07:22:55;;;;;;;65.32;18.52;;;;;;;13.45;26.53;101351.81;4974729;28;20458;-72
2022/03/01 07:25:21;;;;;;;43.45;17.38;;;;;;;12.67;26.94;101350.91;4980510;28;20042;-69
2022/03/01 07:27:52;;;;;;;60.42;17.38;;;;;;;13.19;25.94;101352.09;4978109;28;20108;-68
2022/03/01 07:30:19;;;;;;;37.70;15.35;;;;;;;14.07;25.44;101358.34;4978101;28;20482;-74
2022/03/01 07:32:45;;;;;;;54.63;15.98;;;;;;;14.19;25.95;101363.63;4983209;28;20628;-71
2022/03/01 07:35:11;;;;;;;50.63;15.82;;;;;;;14.97;25.01;101358.59;4970948;28;20072;-72
2022/03/01 07:37:37;;;;;;;26.15;10.93;;;;;;;14.15;23.62;101369.44;5021127;28;20052;-75
2022/03/01 07:40:11;;;;;;;30.48;11.48;;;;;;;14.13;23.60;101366.84;5002283;28;20042;-73
2022/03/01 07:42:37;;;;;;;24.48;10.40;;;;;;;13.52;23.68;101358.47;4980781;28;20062;-72
2022/03/01 07:45:04;;;;;;;26.77;11.13;;;;;;;13.78;23.92;101364.41;5003022;28;20047;-72
2022/03/01 07:47:30;;;;;;;31.15;9.00;;;;;;;14.41;23.09;101350.88;4995039;28;20046;-72
2022/03/01 07:49:56;;;;;;;23.13;10.07;;;;;;;14.51;22.85;101354.50;5028345;28;20180;-70
2022/03/01 07:52:22;;;;;;;24.90;8.07;;;;;;;13.86;22.95;101361.06;5019863;28;20110;-73
2022/03/01 07:54:48;;;;;;;14.88;6.65;;;;;;;14.15;22.72;101356.72;5000552;28;20532;-73
2022/03/01 07:57:15;;;;;;;19.73;6.47;;;;;;;13.86;23.05;101351.06;5021212;28;20184;-73
2022/03/01 07:59:41;;;;;;;18.15;6.95;;;;;;;14.18;23.20;101340.09;5025992;28;20071;-73
2022/03/01 08:02:07;;;;;;;21.13;6.32;;;;;;;13.83;22.34;101345.88;4992699;28;20117;-73
2022/03/01 08:04:33;;;;;;;22.55;6.30;;;;;;;14.57;21.88;101345.81;4971911;28;20064;-74
2022/03/01 08:07:00;;;;;;;17.92;7.00;;;;;;;14.36;22.20;101337.66;4991575;28;20045;-75
2022/03/01 08:09:26;;;;;;;23.33;5.57;;;;;;;14.64;21.94;101336.13;5007858;28;20489;-74
2022/03/01 08:11:52;;;;;;;20.02;8.38;;;;;;;14.69;21.48;101339.28;4967536;28;20057;-71
2022/03/01 08:14:18;;;;;;;26.70;7.70;;;;;;;15.47;21.49;101333.19;4970766;28;20034;-70
2022/03/01 08:16:43;;;;;;;18.30;6.60;;;;;;;15.28;21.78;101344.91;5093761;23;20054;-74
2022/03/01 08:19:09;;;;;;;17.02;6.60;;;;;;;15.06;20.68;101324.22;4951905;28;20081;-71
2022/03/01 08:21:35;;;;;;;21.25;5.95;;;;;;;15.30;20.55;101337.47;4974811;28;20636;-69
2022/03/01 08:24:01;;;;;;;24.33;5.75;;;;;;;14.90;21.18;101336.50;4977252;28;20057;-71
2022/03/01 08:26:27;;;;;;;17.35;5.75;;;;;;;15.02;21.08;101342.69;4950193;28;20058;-74
2022/03/01 08:28:53;;;;;;;16.38;6.03;;;;;;;14.96;20.86;101335.09;4938726;28;20046;-75
2022/03/01 08:31:19;;;;;;;20.67;5.57;;;;;;;15.92;20.01;101344.44;4982014;28;20058;-74
2022/03/01 08:33:46;;;;;;;22.27;6.68;;;;;;;16.07;20.43;101337.53;4979605;28;20142;-72
2022/03/01 08:36:13;;;;;;;23.00;6.90;;;;;;;17.31;19.49;101330.06;4947086;28;20093;-73
2022/03/01 08:38:39;;;;;;;17.60;6.15;;;;;;;17.08;19.98;101326.91;4976664;28;20045;-76
2022/03/01 08:41:05;;;;;;;17.67;5.70;;;;;;;17.55;19.41;101330.31;4996147;28;20042;-71
2022/03/01 08:43:31;;;;;;;17.92;5.47;;;;;;;17.14;18.98;101326.25;4973888;28;20122;-72
2022/03/01 08:45:57;;;;;;;21.80;5.68;;;;;;;16.85;19.28;101330.00;4978026;28;20080;-73
2022/03/01 08:48:25;;;;;;;21.02;6.35;;;;;;;17.46;18.72;101335.84;4970013;28;20409;-75
2022/03/01 08:50:52;;;;;;;19.38;5.57;;;;;;;17.21;18.48;101331.97;4962718;28;20043;-74
2022/03/01 08:53:19;;;;;;;16.02;6.10;;;;;;;17.33;18.09;101322.53;4974704;28;20043;-72
2022/03/01 08:55:46;;;;;;;16.55;6.20;;;;;;;17.03;18.78;101332.78;4993726;28;20109;-71
2022/03/01 08:58:12;;;;;;;21.00;6.45;;;;;;;17.66;19.44;101336.56;4966097;28;20435;-76
2022/03/01 09:00:38;;;;;;;19.38;6.82;;;;;;;17.47;18.46;101343.03;4980450;28;20044;-71
2022/03/01 09:03:05;;;;;;;16.90;6.78;;;;;;;16.93;18.69;101333.84;4955358;28;20099;-76
2022/03/01 09:05:32;;;;;;;22.67;5.82;;;;;;;17.27;18.48;101336.84;4959265;28;20441;-72
2022/03/01 09:07:58;;;;;;;14.90;5.40;;;;;;;16.92;18.55;101338.47;4944913;28;20053;-71
2022/03/01 09:10:24;;;;;;;17.45;5.55;;;;;;;17.20;18.39;101341.22;4951295;28;20083;-70
2022/03/01 09:12:52;;;;;;;16.73;5.75;;;;;;;16.46;18.89;101326.53;4995040;28;20102;-70
2022/03/01 09:15:19;;;;;;;15.13;6.05;;;;;;;16.83;18.82;101333.91;4965947;28;20116;-70
2022/03/01 09:17:46;;;;;;;19.55;5.78;;;;;;;16.98;18.63;101326.06;4991797;28;20073;-73
2022/03/01 09:20:12;;;;;;;15.75;5.10;;;;;;;16.71;18.52;101335.06;4985165;28;20038;-72
2022/03/01 09:22:38;;;;;;;15.77;5.30;;;;;;;17.02;18.87;101332.97;4977552;28;20046;-72
2022/03/01 09:25:04;;;;;;;16.92;5.25;;;;;;;17.56;18.01;101326.56;4943230;28;20038;-70
2022/03/01 09:27:31;;;;;;;16.63;6.13;;;;;;;16.71;19.37;101327.75;4967790;28;20042;-74
2022/03/01 09:29:57;;;;;;;16.48;5.15;;;;;;;16.86;18.50;101311.75;4970552;28;20061;-73
2022/03/01 09:32:25;;;;;;;21.33;7.10;;;;;;;17.20;18.49;101313.88;4953088;28;20435;-73
2022/03/01 09:34:51;;;;;;;15.70;5.05;;;;;;;17.57;17.92;101324.69;4986082;28;20050;-74
2022/03/01 09:37:17;;;;;;;16.25;4.70;;;;;;;17.91;18.13;101311.16;4951371;28;20494;-71
2022/03/01 09:39:43;;;;;;;14.02;4.82;;;;;;;18.58;17.19;101316.97;4957733;28;20053;-71
2022/03/01 09:42:09;;;;;;;19.63;5.03;;;;;;;18.49;17.47;101296.88;4980279;28;20043;-71
2022/03/01 09:44:35;;;;;;;16.90;5.13;;;;;;;19.99;17.58;101316.19;4965241;28;20050;-74
2022/03/01 09:47:02;;;;;;;15.25;5.00;;;;;;;19.23;16.08;101299.94;4954972;28;20120;-71
2022/03/01 09:49:28;;;;;;;19.42;5.55;;;;;;;19.14;17.83;101310.03;4993998;28;20042;-71
2022/03/01 09:51:55;;;;;;;19.63;6.25;;;;;;;19.47;16.21;101282.69;4964324;28;20046;-71
2022/03/01 09:54:24;;;;;;;17.70;5.60;;;;;;;20.93;15.43;101305.56;4987763;28;20141;-71
2022/03/01 09:56:50;;;;;;;14.40;5.60;;;;;;;19.24;16.19;101287.97;4996008;28;20100;-68
2022/03/01 09:59:16;;;;;;;19.58;5.90;;;;;;;19.22;16.46;101303.72;4954263;28;20502;-70
2022/03/01 10:01:50;;;;;;;25.00;7.18;;;;;;;18.89;17.03;101298.13;4987418;28;20042;-78
2022/03/01 10:04:16;;;;;;;21.30;6.97;;;;;;;18.90;16.92;101291.63;4981882;28;20180;-72
2022/03/01 10:06:48;;;;;;;21.23;6.47;;;;;;;19.15;17.21;101291.72;4929144;28;20533;-69
2022/03/01 10:09:18;;;;;;;21.75;6.75;;;;;;;18.84;17.08;101288.69;4977527;28;20129;-72
2022/03/01 10:11:44;;;;;;;17.10;6.47;;;;;;;19.74;16.81;101287.03;4968089;28;20145;-70
2022/03/01 10:14:11;;;;;;;25.98;8.15;;;;;;;20.61;16.06;101285.41;4950551;28;20043;-71
2022/03/01 10:16:41;;;;;;;24.48;8.48;;;;;;;20.59;15.54;101261.91;4961558;28;20054;-74
2022/03/01 10:19:26;;;;;;;23.08;9.55;;;;;;;19.18;17.13;101280.41;4967975;28;20045;-74
2022/03/01 10:22:01;;;;;;;34.05;9.73;;;;;;;20.80;16.39;101270.38;4999508;28;20042;-69
2022/03/01 10:24:28;;;;;;;21.73;7.10;;;;;;;19.93;16.51;101270.25;4967791;28;20368;-71
2022/03/01 10:27:01;;;;;;;25.30;8.55;;;;;;;17.19;17.97;101265.69;4946823;28;20049;-71
2022/03/01 10:29:30;;;;;;;24.38;8.07;;;;;;;18.34;17.82;101268.38;4959657;28;20047;-72
2022/03/01 10:32:00;;;;;;;21.05;8.55;;;;;;;19.08;17.50;101263.25;4993976;28;20533;-73
2022/03/01 10:34:29;;;;;;;23.58;7.88;;;;;;;18.78;17.90;101247.22;4975161;28;20050;-72
2022/03/01 10:36:55;;;;;;;24.88;8.85;;;;;;;19.88;16.44;101250.66;4962470;28;20054;-71
2022/03/01 10:39:29;;;;;;;22.75;7.70;;;;;;;18.77;17.65;101261.09;4970187;28;20042;-72
2022/03/01 10:41:55;;;;;;;20.67;7.35;;;;;;;20.06;16.03;101255.97;5000863;28;20046;-71
2022/03/01 10:44:27;;;;;;;22.30;7.90;;;;;;;18.71;17.10;101256.25;4976495;28;20046;-71
2022/03/01 10:46:55;;;;;;;23.92;9.75;;;;;;;19.94;16.32;101255.47;5003492;28;20043;-71
2022/03/01 10:49:26;;;;;;;25.50;9.15;;;;;;;18.51;17.48;101250.16;4986299;28;20478;-72
2022/03/01 10:51:54;;;;;;;27.13;9.57;;;;;;;17.32;18.47;101252.50;5011794;28;20154;-70
2022/03/01 10:54:37;;;;;;;26.48;9.27;;;;;;;18.30;17.74;101247.81;4992680;28;20061;-72
2022/03/01 10:57:05;;;;;;;22.27;9.00;;;;;;;18.42;17.64;101246.50;4984751;28;20042;-69
2022/03/01 10:59:33;;;;;;;24.23;10.30;;;;;;;15.13;20.95;101244.53;4992639;28;20501;-67
2022/03/01 11:01:59;;;;;;;29.23;8.77;;;;;;;16.49;20.25;101238.91;5002867;28;20469;-68
2022/03/01 11:04:26;;;;;;;27.65;9.95;;;;;;;16.87;19.13;101223.34;4973672;28;20116;-68
2022/03/01 11:06:59;;;;;;;25.75;10.35;;;;;;;18.76;17.87;101232.00;4974931;28;20478;-69
2022/03/01 11:09:28;;;;;;;27.73;8.57;;;;;;;17.91;17.98;101229.09;4986000;28;20164;-69
2022/03/01 11:11:55;;;;;;;25.25;10.27;;;;;;;17.03;18.64;101230.84;5001247;28;20081;-69